Eagle Point, Iowa
Current Conditions -  °F | °C
As of 9:53 AM on Saturday 20 Dec 2014 (Local Time) from KDBQ Reporting Station
Haze Haze  
Wind Chill: 21°   Ceiling: 2700
Heat Index: 28°   Visibility: 4mi
Dew Point: 25°   Wind: 7mph
Humidity: 88%   Direction: 150°SSE
Pressure: 30.23"   Gusts: NA
Location:  42.549°N, 90.6988°W
Report Text: KDBQ 201553Z 15006KT 4SM BR OVC027 M02/M04 A3023 RMK AO2 SLP252 T10221039
Loading
Personal Weather Stations






























Interactive Weather Map New forecast layout! Learn more

10-Day Weather Forecast

Advertisements
Track Severe Weather on mobile